createdAt,value
2023-05-24T00:02:07.805Z,16.39
2023-05-24T00:09:09.432Z,16.26
2023-05-24T00:16:11.067Z,16.29
2023-05-24T00:23:12.688Z,16.16
2023-05-24T00:30:14.327Z,16.09
2023-05-24T00:37:15.922Z,16.16
2023-05-24T00:44:17.499Z,15.95
2023-05-24T00:51:19.208Z,15.89
2023-05-24T00:58:21.255Z,15.96
2023-05-24T01:05:23.548Z,15.93
2023-05-24T01:12:28.131Z,15.88
2023-05-24T01:19:51.480Z,15.95
2023-05-24T01:27:07.304Z,15.65
2023-05-24T01:34:09.850Z,15.85
2023-05-24T01:41:14.097Z,15.86
2023-05-24T01:48:30.766Z,15.70
2023-05-24T01:55:32.942Z,15.87
2023-05-24T02:02:34.645Z,15.80
2023-05-24T02:09:36.443Z,15.83
2023-05-24T02:16:42.629Z,15.76
2023-05-24T02:23:44.446Z,15.77
2023-05-24T02:30:46.994Z,15.88
2023-05-24T02:37:48.569Z,15.39
2023-05-24T02:44:52.487Z,15.80
2023-05-24T02:51:54.146Z,15.84
2023-05-24T02:58:56.376Z,15.64
2023-05-24T03:05:58.080Z,15.59
2023-05-24T03:12:59.724Z,15.67
2023-05-24T03:20:01.923Z,15.55
2023-05-24T03:27:06.583Z,15.62
2023-05-24T03:34:08.303Z,15.56
2023-05-24T03:41:11.347Z,15.51
2023-05-24T03:48:13.768Z,15.55
2023-05-24T03:55:15.747Z,15.49
2023-05-24T04:02:17.448Z,15.60
2023-05-24T04:09:19.215Z,15.55
2023-05-24T04:16:21.084Z,15.66
2023-05-24T04:23:22.682Z,15.68
2023-05-24T04:30:24.374Z,15.72
2023-05-24T04:37:26.036Z,15.73
2023-05-24T04:44:28.195Z,15.74
2023-05-24T04:51:29.771Z,15.78
2023-05-24T04:58:31.350Z,15.82
2023-05-24T05:05:33.120Z,15.79
2023-05-24T05:12:34.748Z,15.98
2023-05-24T05:19:36.386Z,15.91
2023-05-24T05:26:38.014Z,16.08
2023-05-24T05:33:39.677Z,16.00
2023-05-24T05:40:41.462Z,16.01
2023-05-24T05:47:43.338Z,15.97
2023-05-24T05:54:45.034Z,15.74
2023-05-24T06:01:48.857Z,16.13
2023-05-24T06:08:50.517Z,16.19
2023-05-24T06:15:52.791Z,16.03
2023-05-24T06:22:55.358Z,16.11
2023-05-24T06:29:56.942Z,16.38
2023-05-24T06:36:58.675Z,16.39
2023-05-24T06:44:00.265Z,16.56
2023-05-24T06:51:02.034Z,16.68
2023-05-24T06:58:03.939Z,16.82
2023-05-24T07:05:06.408Z,16.96
2023-05-24T07:12:09.293Z,16.79
2023-05-24T07:19:11.112Z,16.87
2023-05-24T07:26:12.816Z,17.28
2023-05-24T07:33:14.449Z,17.18
2023-05-24T07:40:16.240Z,17.58
2023-05-24T07:47:17.880Z,17.40
2023-05-24T07:54:19.507Z,17.81
2023-05-24T08:01:21.139Z,17.64
2023-05-24T08:08:23.168Z,17.57
2023-05-24T08:15:24.901Z,17.68
2023-05-24T08:22:26.503Z,17.70
2023-05-24T08:29:28.469Z,17.71
2023-05-24T08:36:30.241Z,17.30
2023-05-24T08:43:32.929Z,17.52
2023-05-24T08:50:34.761Z,17.60
2023-05-24T08:57:39.519Z,17.57
2023-05-24T09:04:41.637Z,17.55
2023-05-24T09:11:43.679Z,17.45
2023-05-24T09:18:45.311Z,17.48
2023-05-24T09:25:47.681Z,17.37
2023-05-24T09:32:57.175Z,17.70
2023-05-24T09:39:58.887Z,18.19
2023-05-24T09:47:06.752Z,18.32
2023-05-24T09:54:08.364Z,18.21
2023-05-24T10:01:18.645Z,18.94
2023-05-24T10:08:21.480Z,18.57
2023-05-24T10:15:23.581Z,18.61
2023-05-24T10:22:26.050Z,18.85
2023-05-24T10:29:41.962Z,19.41
2023-05-24T10:36:44.055Z,20.55
2023-05-24T10:44:00.660Z,21.49
2023-05-24T10:51:32.878Z,21.86
2023-05-24T10:58:35.384Z,22.08
2023-05-24T11:05:52.734Z,21.96
2023-05-24T11:13:00.016Z,21.91
2023-05-24T11:20:01.716Z,21.50
2023-05-24T11:27:03.759Z,20.95
2023-05-24T11:34:06.830Z,20.80
2023-05-24T11:41:08.411Z,20.47
2023-05-24T11:48:10.631Z,19.91
2023-05-24T11:55:16.481Z,20.39
2023-05-24T12:02:19.514Z,20.90
2023-05-24T12:09:21.183Z,21.44
2023-05-24T12:16:23.362Z,22.63
2023-05-24T12:23:29.591Z,23.56
2023-05-24T12:30:31.466Z,24.70
2023-05-24T12:37:33.533Z,26.55
2023-05-24T12:44:35.824Z,26.90
2023-05-24T12:51:37.468Z,27.65
2023-05-24T12:58:39.134Z,28.34
2023-05-24T13:05:41.137Z,28.55
2023-05-24T13:12:43.630Z,28.49
2023-05-24T13:19:45.247Z,29.05
2023-05-24T13:26:47.010Z,29.03
2023-05-24T13:33:49.165Z,29.09
2023-05-24T13:40:53.523Z,27.83
2023-05-24T13:47:58.348Z,26.35
2023-05-24T13:55:00.044Z,26.03
2023-05-24T14:02:01.821Z,25.64
2023-05-24T14:09:04.553Z,26.67
2023-05-24T14:16:06.941Z,27.17
2023-05-24T14:23:08.631Z,26.74
2023-05-24T14:30:10.585Z,26.15
2023-05-24T14:37:12.230Z,26.07
2023-05-24T14:44:13.931Z,25.72
2023-05-24T14:51:15.604Z,26.72
2023-05-24T14:58:17.216Z,26.33
2023-05-24T15:05:19.381Z,25.80
2023-05-24T15:12:22.221Z,25.97
2023-05-24T15:19:23.889Z,26.73
2023-05-24T15:26:25.576Z,26.82
2023-05-24T15:33:27.309Z,26.82
2023-05-24T15:40:28.918Z,26.09
2023-05-24T15:47:36.140Z,25.48
2023-05-24T15:54:37.821Z,25.63
2023-05-24T16:01:39.454Z,25.84
2023-05-24T16:08:41.120Z,25.51
2023-05-24T16:15:43.226Z,25.24
2023-05-24T16:22:49.393Z,25.47
2023-05-24T16:29:51.594Z,25.00
2023-05-24T16:36:53.258Z,24.98
2023-05-24T16:43:54.908Z,25.20
2023-05-24T16:50:56.720Z,25.16
2023-05-24T16:57:58.397Z,24.42
2023-05-24T17:05:00.057Z,24.14
2023-05-24T17:12:01.839Z,23.76
2023-05-24T17:19:03.544Z,23.36
2023-05-24T17:26:07.781Z,23.23
2023-05-24T17:33:09.451Z,22.84
2023-05-24T17:40:11.395Z,22.71
2023-05-24T17:47:13.063Z,22.57
2023-05-24T17:54:14.673Z,22.42
2023-05-24T18:01:16.396Z,22.19
2023-05-24T18:08:18.196Z,21.97
2023-05-24T18:15:21.066Z,21.81
2023-05-24T18:22:22.671Z,21.54
2023-05-24T18:29:24.335Z,21.44
2023-05-24T18:36:25.976Z,21.28
2023-05-24T18:43:27.557Z,21.09
2023-05-24T18:50:29.156Z,20.97
2023-05-24T18:57:32.936Z,20.82
2023-05-24T19:04:34.585Z,20.72
2023-05-24T19:11:36.396Z,20.55
2023-05-24T19:18:38.040Z,20.37
2023-05-24T19:25:42.177Z,20.23
2023-05-24T19:32:43.946Z,20.11
2023-05-24T19:39:45.568Z,20.05
2023-05-24T19:46:47.154Z,19.96
2023-05-24T19:53:48.775Z,19.91
2023-05-24T20:00:50.401Z,19.88
2023-05-24T20:07:52.684Z,19.79
2023-05-24T20:14:54.481Z,19.73
2023-05-24T20:21:56.164Z,19.77
2023-05-24T20:28:57.744Z,19.70
2023-05-24T20:35:59.422Z,19.55
2023-05-24T20:43:01.127Z,19.42
2023-05-24T20:50:03.945Z,19.35
2023-05-24T20:57:06.171Z,19.21
2023-05-24T21:04:07.778Z,19.20
2023-05-24T21:11:09.375Z,19.16
2023-05-24T21:18:10.990Z,19.00
2023-05-24T21:25:12.738Z,19.04
2023-05-24T21:32:14.668Z,18.92
2023-05-24T21:39:16.406Z,18.89
2023-05-24T21:46:18.016Z,18.80
2023-05-24T21:53:19.649Z,18.73
2023-05-24T22:00:21.546Z,18.66
2023-05-24T22:07:23.151Z,18.54
2023-05-24T22:14:26.137Z,18.47
2023-05-24T22:21:28.111Z,18.35
2023-05-24T22:28:33.966Z,18.25
2023-05-24T22:35:35.586Z,18.16
2023-05-24T22:42:37.252Z,18.12
2023-05-24T22:49:39.230Z,18.01
2023-05-24T22:56:41.533Z,18.04
2023-05-24T23:03:43.130Z,18.01
2023-05-24T23:10:47.725Z,17.94
2023-05-24T23:17:52.373Z,17.85
2023-05-24T23:24:53.995Z,17.85
2023-05-24T23:31:55.732Z,17.74
2023-05-24T23:38:57.377Z,17.67
2023-05-24T23:45:58.972Z,17.64
2023-05-24T23:53:00.556Z,17.59
